Time;durP1;ratioP1;P1;durP2;ratioP2;P2;SDS_P1;SDS_P2;PMS_P1;PMS_P2;Temp;Humidity;BMP_temperature;BMP_pressure;BME280_temperature;BME280_humidity;BME280_pressure;Samples;Min_cycle;Max_cycle;Signal;HPM_P1;HPM_P2
2021/09/29 12:08:51;;;;;;;4.93;2.47;;;;;;;;;;1049276;27;99900;-55
2021/09/29 12:09:32;;;;;;;;;;;;;;;;;;1043626;27;100504;-57
2021/09/29 12:10:09;;;;;;;;;;;;;;;;;;1041444;28;99789;-51
2021/09/29 12:11:00;;;;;;;6.20;2.30;;;;;;;;;;1039860;28;100543;-55
2021/09/29 12:11:42;;;;;;;12.32;2.92;;;;;;;;;;1041153;28;99230;-55
2021/09/29 12:12:26;;;;;;;11.75;3.30;;;;;;;;;;1038799;28;103137;-51
2021/09/29 12:12:58;;;;;;;8.57;2.53;;;;;;;;;;1040653;28;99870;-55
2021/09/29 12:13:55;;;;;;;4.75;2.33;;;;;;;;;;1039444;28;100750;-57
2021/09/29 12:14:26;;;;;;;7.22;2.70;;;;;;;;;;1040365;28;99874;-55
2021/09/29 12:15:02;;;;;;;14.68;2.80;;;;;;;;;;1038774;28;100745;-53
2021/09/29 12:15:44;;;;;;;6.90;3.13;;;;;;;;;;1040492;28;100296;-52
2021/09/29 12:16:31;;;;;;;15.63;3.00;;;;;;;;;;1034692;28;103568;-57
2021/09/29 12:17:03;;;;;;;11.50;3.03;;;;;;;;;;1031915;28;100084;-56
2021/09/29 12:17:40;;;;;;;10.38;2.95;;;;;;;;;;1030741;28;100430;-53
2021/09/29 12:18:12;;;;;;;10.00;2.67;;;;;;;;;;1033955;28;100084;-56
2021/09/29 12:18:53;;;;;;;9.85;2.83;;;;;;;;;;1032287;28;100447;-54
2021/09/29 12:19:26;;;;;;;8.98;2.72;;;;;;;;;;1036330;28;100219;-55
2021/09/29 12:20:00;;;;;;;13.68;3.33;;;;;;;;;;1034990;28;100972;-55
2021/09/29 12:20:31;;;;;;;13.48;3.35;;;;;;;;;;1038392;28;100355;-56
2021/09/29 12:21:03;;;;;;;11.20;3.08;;;;;;;;;;1039042;28;101306;-56
2021/09/29 12:22:00;;;;;;;14.75;3.00;;;;;;;;;;1040579;28;100221;-56
2021/09/29 12:22:40;;;;;;;7.43;2.65;;;;;;;;;;1038763;28;101720;-54
2021/09/29 12:23:11;;;;;;;9.85;2.78;;;;;;;;;;1032090;28;99915;-55
2021/09/29 12:23:49;;;;;;;9.50;3.15;;;;;;;;;;1026446;28;100319;-55
2021/09/29 12:24:48;;;;;;;12.90;2.75;;;;;;;;;;1028185;28;99957;-57
2021/09/29 12:26:30;;;;;;;10.00;2.55;;;;;;;;;;1036657;28;100064;-57
2021/09/29 12:27:01;;;;;;;10.77;3.00;;;;;;;;;;1030359;28;100753;-57
2021/09/29 12:27:38;;;;;;;7.97;3.20;;;;;;;;;;1028102;28;100082;-56
2021/09/29 12:29:14;;;;;;;8.07;3.10;;;;;;;;;;1032271;28;99882;-55
2021/09/29 12:29:52;;;;;;;16.25;3.17;;;;;;;;;;1035588;27;101283;-58
2021/09/29 12:30:34;;;;;;;8.85;3.10;;;;;;;;;;1036500;28;99978;-59
2021/09/29 12:33:19;;;;;;;13.18;3.25;;;;;;;;;;1036334;28;99921;-59
2021/09/29 12:34:10;;;;;;;8.77;2.42;;;;;;;;;;1035130;28;100429;-59
2021/09/29 12:35:43;;;;;;;9.90;2.67;;;;;;;;;;1035539;28;99913;-59
2021/09/29 12:35:46;;;;;;;9.10;2.70;;;;;;;;;;1030478;28;100637;-61
2021/09/29 12:36:32;;;;;;;5.85;2.80;;;;;;;;;;1040685;28;99930;-61
2021/09/29 12:37:10;;;;;;;10.80;2.78;;;;;;;;;;1038828;28;100518;-60
2021/09/29 12:37:55;;;;;;;8.30;3.40;;;;;;;;;;1040339;28;99937;-61
2021/09/29 12:38:37;;;;;;;10.65;3.15;;;;;;;;;;1039170;28;100532;-61
2021/09/29 12:39:38;;;;;;;10.55;3.20;;;;;;;;;;1040326;28;99899;-60
2021/09/29 12:40:11;;;;;;;11.38;2.55;;;;;;;;;;1018075;28;101566;-61
2021/09/29 12:40:43;;;;;;;11.07;2.72;;;;;;;;;;1020261;28;99881;-61
2021/09/29 12:41:14;;;;;;;9.15;2.75;;;;;;;;;;1014527;28;101364;-60
2021/09/29 12:41:50;;;;;;;7.53;2.70;;;;;;;;;;1015993;28;100158;-60
2021/09/29 12:42:31;;;;;;;5.45;2.55;;;;;;;;;;1014866;28;100792;-58
2021/09/29 12:43:10;;;;;;;13.90;3.20;;;;;;;;;;1015264;28;100630;-59
2021/09/29 12:43:41;;;;;;;10.07;2.60;;;;;;;;;;1014968;28;101010;-59
2021/09/29 12:44:16;;;;;;;10.82;3.17;;;;;;;;;;1016291;28;99957;-59
2021/09/29 12:44:51;;;;;;;8.85;2.78;;;;;;;;;;1014728;28;100509;-59
2021/09/29 12:45:33;;;;;;;8.38;2.80;;;;;;;;;;1015733;28;100158;-59
2021/09/29 12:46:04;;;;;;;8.27;3.30;;;;;;;;;;1017541;28;100561;-59
2021/09/29 12:46:35;;;;;;;10.30;2.70;;;;;;;;;;1020226;28;100094;-59
2021/09/29 12:47:21;;;;;;;9.32;2.45;;;;;;;;;;1018285;28;100433;-59
2021/09/29 12:47:52;;;;;;;10.18;2.85;;;;;;;;;;1015242;28;100076;-59
2021/09/29 12:48:27;;;;;;;9.23;3.03;;;;;;;;;;1014353;28;100549;-59
2021/09/29 12:49:02;;;;;;;6.85;2.60;;;;;;;;;;1014077;28;99891;-60
2021/09/29 12:49:32;;;;;;;6.35;2.67;;;;;;;;;;1015297;28;100510;-58
2021/09/29 12:50:16;;;;;;;10.88;3.15;;;;;;;;;;1019903;28;100202;-58
2021/09/29 12:50:52;;;;;;;8.50;2.83;;;;;;;;;;1017722;28;100603;-58
2021/09/29 12:51:24;;;;;;;8.27;2.65;;;;;;;;;;1020020;28;100243;-60
2021/09/29 12:52:11;;;;;;;6.80;2.90;;;;;;;;;;1015949;28;100667;-58
2021/09/29 12:52:52;;;;;;;7.97;2.53;;;;;;;;;;1018452;28;100112;-58
2021/09/29 12:54:01;;;;;;;9.10;2.90;;;;;;;;;;1017429;28;99905;-57
2021/09/29 12:54:32;;;;;;;6.43;2.38;;;;;;;;;;1010629;28;100439;-58
2021/09/29 12:55:04;;;;;;;8.68;2.75;;;;;;;;;;1011840;28;100216;-58
2021/09/29 12:55:37;;;;;;;7.68;2.50;;;;;;;;;;1010742;28;102012;-58
2021/09/29 12:56:17;;;;;;;9.13;2.65;;;;;;;;;;1013511;28;99919;-58
2021/09/29 12:56:48;;;;;;;17.40;3.13;;;;;;;;;;1014652;28;100313;-60
2021/09/29 12:57:19;;;;;;;8.40;2.67;;;;;;;;;;1015726;28;100063;-59
2021/09/29 12:57:50;;;;;;;9.05;2.97;;;;;;;;;;1014526;28;100433;-59
2021/09/29 12:58:21;;;;;;;7.78;2.72;;;;;;;;;;1017332;28;100159;-59
2021/09/29 12:58:51;;;;;;;8.55;2.53;;;;;;;;;;1018532;28;100972;-59
2021/09/29 12:59:22;;;;;;;12.10;2.83;;;;;;;;;;1019907;28;100176;-60
2021/09/29 12:59:54;;;;;;;8.43;2.60;;;;;;;;;;1018387;28;100637;-59
2021/09/29 13:00:25;;;;;;;8.98;2.40;;;;;;;;;;1019837;28;100085;-59
2021/09/29 13:00:57;;;;;;;6.30;2.50;;;;;;;;;;1018757;28;101400;-58
2021/09/29 13:01:28;;;;;;;6.13;2.60;;;;;;;;;;1019962;28;99932;-60
2021/09/29 13:01:59;;;;;;;8.85;2.20;;;;;;;;;;1014488;28;100728;-58
2021/09/29 13:02:30;;;;;;;11.00;2.75;;;;;;;;;;1016068;28;100047;-58
2021/09/29 13:03:02;;;;;;;7.45;2.80;;;;;;;;;;1014784;28;100498;-57
2021/09/29 13:03:33;;;;;;;6.40;2.45;;;;;;;;;;1016418;28;100088;-57
2021/09/29 13:04:04;;;;;;;11.40;3.33;;;;;;;;;;1018487;28;100718;-57
2021/09/29 13:04:35;;;;;;;8.05;2.63;;;;;;;;;;1019890;28;99871;-57
2021/09/29 13:05:07;;;;;;;9.73;2.90;;;;;;;;;;1018364;28;101377;-57
2021/09/29 13:05:38;;;;;;;8.50;2.30;;;;;;;;;;1018416;28;99911;-57
2021/09/29 13:06:10;;;;;;;7.53;2.10;;;;;;;;;;1018074;28;101271;-56
2021/09/29 13:06:41;;;;;;;4.28;2.10;;;;;;;;;;1019774;28;99930;-58
2021/09/29 13:07:12;;;;;;;4.55;2.40;;;;;;;;;;1017656;28;100821;-58
2021/09/29 13:07:43;;;;;;;6.85;2.50;;;;;;;;;;1013593;28;100167;-59
2021/09/29 13:08:15;;;;;;;6.28;2.45;;;;;;;;;;1012567;28;100374;-59
2021/09/29 13:08:46;;;;;;;9.90;2.95;;;;;;;;;;1008158;28;100135;-57
2021/09/29 13:09:17;;;;;;;13.68;2.95;;;;;;;;;;1007169;28;100511;-58
2021/09/29 13:09:47;;;;;;;8.70;2.83;;;;;;;;;;1011914;28;99938;-58
2021/09/29 13:10:18;;;;;;;9.75;2.83;;;;;;;;;;1010486;28;100360;-59
2021/09/29 13:10:49;;;;;;;21.10;2.97;;;;;;;;;;1015478;28;99941;-58
2021/09/29 13:11:20;;;;;;;6.80;2.47;;;;;;;;;;1014621;28;100483;-58
2021/09/29 13:11:51;;;;;;;6.53;2.80;;;;;;;;;;1011483;28;100067;-60
2021/09/29 13:12:21;;;;;;;8.27;2.45;;;;;;;;;;1013481;28;101366;-58
2021/09/29 13:12:52;;;;;;;8.35;3.10;;;;;;;;;;1015593;28;99938;-58
2021/09/29 13:13:23;;;;;;;8.65;2.50;;;;;;;;;;1002439;28;102429;-57
2021/09/29 13:13:54;;;;;;;10.43;2.60;;;;;;;;;;1007730;28;99974;-57
2021/09/29 13:14:25;;;;;;;9.52;2.50;;;;;;;;;;1006380;28;100418;-57
2021/09/29 13:14:55;;;;;;;7.07;2.58;;;;;;;;;;1008163;28;99925;-57
2021/09/29 13:15:27;;;;;;;6.80;2.65;;;;;;;;;;1010473;28;100825;-58
2021/09/29 13:16:00;;;;;;;7.30;2.42;;;;;;;;;;1011811;28;99944;-58
2021/09/29 13:16:32;;;;;;;8.73;2.53;;;;;;;;;;1010177;28;101412;-58
2021/09/29 13:17:03;;;;;;;8.85;3.22;;;;;;;;;;1007583;28;100357;-58
2021/09/29 13:17:34;;;;;;;8.15;2.63;;;;;;;;;;1018017;28;100460;-59
2021/09/29 13:18:05;;;;;;;6.25;2.40;;;;;;;;;;1020779;28;99898;-57
2021/09/29 13:19:29;;;;;;;10.38;2.67;;;;;;;;;;1024624;28;99928;-58
2021/09/29 13:20:04;;;;;;;9.38;3.00;;;;;;;;;;1031248;28;100289;-58
2021/09/29 13:20:36;;;;;;;13.02;2.90;;;;;;;;;;1033012;28;100156;-58
2021/09/29 13:21:56;;;;;;;11.23;2.70;;;;;;;;;;1030526;28;99858;-58
2021/09/29 13:22:28;;;;;;;10.07;2.53;;;;;;;;;;1025578;28;100368;-60
2021/09/29 13:23:09;;;;;;;9.98;2.75;;;;;;;;;;1025973;28;100116;-58
2021/09/29 13:23:52;;;;;;;9.07;2.55;;;;;;;;;;1023448;28;100437;-60
2021/09/29 13:26:49;;;;;;;11.35;3.08;;;;;;;;;;1014786;28;101501;-57
2021/09/29 13:27:42;;;;;;;7.20;2.67;;;;;;;;;;1012302;28;100075;-57
2021/09/29 13:36:35;;;;;;;10.43;3.15;;;;;;;;;;1015926;28;100763;-56
2021/09/29 13:37:05;;;;;;;9.27;2.38;;;;;;;;;;1017065;28;99907;-57
2021/09/29 13:37:36;;;;;;;7.43;2.28;;;;;;;;;;1011039;28;100328;-58
2021/09/29 13:38:07;;;;;;;9.75;3.05;;;;;;;;;;1012753;28;99974;-57
2021/09/29 13:38:38;;;;;;;9.50;2.63;;;;;;;;;;1010846;28;101371;-57
2021/09/29 13:39:14;;;;;;;6.97;2.47;;;;;;;;;;1012575;28;100506;-56
2021/09/29 13:39:45;;;;;;;10.68;2.72;;;;;;;;;;1015112;28;100533;-57
2021/09/29 13:40:16;;;;;;;8.55;2.55;;;;;;;;;;1012055;28;100082;-57
2021/09/29 13:40:47;;;;;;;9.95;2.63;;;;;;;;;;1010629;28;101447;-57
2021/09/29 13:41:18;;;;;;;7.97;2.40;;;;;;;;;;1012174;28;100113;-57
2021/09/29 13:41:53;;;;;;;8.75;2.60;;;;;;;;;;1010933;28;101285;-57
2021/09/29 13:42:24;;;;;;;7.85;2.70;;;;;;;;;;1016203;28;100362;-57
2021/09/29 13:42:55;;;;;;;11.57;2.90;;;;;;;;;;1014897;28;102003;-55
2021/09/29 13:43:26;;;;;;;7.35;2.58;;;;;;;;;;1016466;28;100198;-58
2021/09/29 13:43:57;;;;;;;5.20;2.30;;;;;;;;;;1015155;28;100261;-57
2021/09/29 13:44:28;;;;;;;9.85;2.65;;;;;;;;;;1016394;28;100288;-58
2021/09/29 13:44:58;;;;;;;6.70;2.30;;;;;;;;;;1015305;28;100456;-58
2021/09/29 13:45:29;;;;;;;6.32;2.70;;;;;;;;;;1023383;28;100201;-58
2021/09/29 13:46:00;;;;;;;10.57;2.38;;;;;;;;;;1027136;28;100685;-57
2021/09/29 13:46:31;;;;;;;10.10;2.83;;;;;;;;;;1028559;28;100102;-57
2021/09/29 13:47:03;;;;;;;11.98;3.00;;;;;;;;;;1027496;28;100662;-56
2021/09/29 13:47:33;;;;;;;9.65;2.63;;;;;;;;;;1028686;28;100170;-57
2021/09/29 13:48:04;;;;;;;8.52;2.80;;;;;;;;;;1027170;28;100579;-54
2021/09/29 13:48:35;;;;;;;10.63;2.75;;;;;;;;;;1028570;28;100050;-55
2021/09/29 13:49:08;;;;;;;8.60;2.50;;;;;;;;;;1027256;28;101539;-57
2021/09/29 13:49:39;;;;;;;9.18;2.67;;;;;;;;;;1032752;28;100039;-56
2021/09/29 13:50:12;;;;;;;9.27;2.53;;;;;;;;;;1031444;28;100732;-57
2021/09/29 13:50:43;;;;;;;8.52;2.60;;;;;;;;;;1032804;28;100362;-57
2021/09/29 13:51:14;;;;;;;13.32;3.08;;;;;;;;;;1030802;28;100384;-57
2021/09/29 13:51:46;;;;;;;7.72;2.50;;;;;;;;;;1028610;28;100165;-57
2021/09/29 13:52:23;;;;;;;10.45;2.20;;;;;;;;;;1027408;28;100722;-56
2021/09/29 13:52:54;;;;;;;6.97;2.45;;;;;;;;;;1028826;28;100153;-57
2021/09/29 13:53:26;;;;;;;8.60;2.38;;;;;;;;;;1027525;28;100845;-57
2021/09/29 13:53:58;;;;;;;7.93;2.92;;;;;;;;;;1028725;28;100074;-57
2021/09/29 13:54:29;;;;;;;8.02;2.55;;;;;;;;;;1023610;28;100742;-56
2021/09/29 13:55:02;;;;;;;11.25;2.88;;;;;;;;;;1025161;28;99857;-57
2021/09/29 13:55:33;;;;;;;9.57;2.75;;;;;;;;;;1023642;28;100569;-58
2021/09/29 13:56:07;;;;;;;11.23;2.88;;;;;;;;;;1025522;28;100268;-58
2021/09/29 13:56:58;;;;;;;8.75;2.55;;;;;;;;;;1027854;28;100489;-57
2021/09/29 13:57:44;;;;;;;;;;;;;;;;;;1033610;28;99885;-59
2021/09/29 13:58:44;;;;;;;8.82;2.45;;;;;;;;;;1027590;28;101558;-58
2021/09/29 14:14:10;;;;;;;9.25;2.60;;;;;;;;;;1033708;28;100102;-57
2021/09/29 14:15:14;;;;;;;9.13;2.30;;;;;;;;;;1033659;28;100048;-55
2021/09/29 14:29:56;;;;;;;;;;;;;;;;;;;;;
2021/09/29 14:30:30;;;;;;;10.23;2.70;;;;;;;;;;1028449;28;99888;-55
2021/09/29 14:31:03;;;;;;;11.32;3.00;;;;;;;;;;1027758;28;100474;-54
2021/09/29 14:31:46;;;;;;;7.57;2.38;;;;;;;;;;1028490;28;99899;-54
2021/09/29 14:32:22;;;;;;;7.90;2.35;;;;;;;;;;1030515;28;103116;-55
2021/09/29 14:33:29;;;;;;;8.65;2.50;;;;;;;;;;1027439;28;100649;-56
2021/09/29 14:33:59;;;;;;;9.73;2.08;;;;;;;;;;1024732;28;99903;-57
2021/09/29 14:34:30;;;;;;;7.55;2.28;;;;;;;;;;1020119;28;103151;-51
2021/09/29 14:35:01;;;;;;;12.18;2.60;;;;;;;;;;1024945;28;99918;-54
2021/09/29 14:35:32;;;;;;;11.57;2.95;;;;;;;;;;1024180;28;100455;-55
2021/09/29 14:36:03;;;;;;;8.57;2.33;;;;;;;;;;1028691;28;99958;-55
2021/09/29 14:36:34;;;;;;;21.30;2.83;;;;;;;;;;1027558;28;100635;-56
2021/09/29 14:37:05;;;;;;;10.68;2.47;;;;;;;;;;1024304;28;100072;-56
2021/09/29 14:37:36;;;;;;;7.55;2.72;;;;;;;;;;1023467;28;100438;-56
2021/09/29 14:38:06;;;;;;;9.27;2.30;;;;;;;;;;1024892;28;99954;-57
2021/09/29 14:38:37;;;;;;;10.52;2.78;;;;;;;;;;1027627;28;100363;-58
2021/09/29 14:39:08;;;;;;;7.57;2.05;;;;;;;;;;1032665;28;99923;-56
2021/09/29 14:39:39;;;;;;;8.40;2.25;;;;;;;;;;1023092;28;100780;-55
2021/09/29 14:40:11;;;;;;;7.57;2.65;;;;;;;;;;1024571;28;99905;-57
2021/09/29 14:40:41;;;;;;;14.27;2.42;;;;;;;;;;1023383;28;100507;-55
2021/09/29 14:41:13;;;;;;;7.10;2.40;;;;;;;;;;1029405;28;99966;-57
2021/09/29 14:41:44;;;;;;;10.18;2.80;;;;;;;;;;1031541;28;100517;-57
2021/09/29 14:42:15;;;;;;;9.23;2.60;;;;;;;;;;1032568;28;99981;-56
2021/09/29 14:42:46;;;;;;;9.15;2.40;;;;;;;;;;1026899;28;100679;-55
2021/09/29 14:43:18;;;;;;;7.25;2.38;;;;;;;;;;1024750;28;99904;-55
2021/09/29 14:43:49;;;;;;;10.98;2.50;;;;;;;;;;1027471;28;100288;-53
2021/09/29 14:44:20;;;;;;;10.65;2.70;;;;;;;;;;1028917;28;100057;-55
2021/09/29 14:44:50;;;;;;;13.00;2.65;;;;;;;;;;1027391;28;100461;-53
2021/09/29 14:45:21;;;;;;;11.02;2.85;;;;;;;;;;1028869;28;100167;-50
2021/09/29 14:45:52;;;;;;;7.43;2.17;;;;;;;;;;1027604;28;100368;-53
2021/09/29 14:46:23;;;;;;;7.80;2.30;;;;;;;;;;1028244;28;100260;-55
2021/09/29 14:46:53;;;;;;;8.65;2.50;;;;;;;;;;1031717;28;100160;-54
2021/09/29 14:47:24;;;;;;;11.50;2.42;;;;;;;;;;1032871;28;100236;-55
2021/09/29 14:47:55;;;;;;;11.27;2.85;;;;;;;;;;1031744;28;100390;-54
2021/09/29 14:48:26;;;;;;;9.18;2.65;;;;;;;;;;1032824;28;100142;-55
2021/09/29 14:48:57;;;;;;;12.50;2.63;;;;;;;;;;1027291;28;101337;-54
2021/09/29 14:49:29;;;;;;;8.90;2.80;;;;;;;;;;1028773;28;100342;-58
2021/09/29 14:49:59;;;;;;;8.23;2.30;;;;;;;;;;1027529;28;100329;-58
2021/09/29 14:50:30;;;;;;;6.28;2.30;;;;;;;;;;1029138;28;100194;-57
2021/09/29 14:51:07;;;;;;;10.85;2.65;;;;;;;;;;1031729;28;100338;-58
2021/09/29 14:51:38;;;;;;;7.78;2.20;;;;;;;;;;1032806;28;100125;-57
2021/09/29 14:52:10;;;;;;;13.35;2.83;;;;;;;;;;1030941;28;100378;-57
2021/09/29 14:52:41;;;;;;;10.48;2.50;;;;;;;;;;1024073;28;100065;-57
2021/09/29 14:53:12;;;;;;;9.73;2.53;;;;;;;;;;1019190;28;100395;-57
2021/09/29 14:53:48;;;;;;;9.63;2.60;;;;;;;;;;1020793;28;100099;-57
2021/09/29 14:54:18;;;;;;;7.28;2.53;;;;;;;;;;1021258;28;100430;-57
2021/09/29 14:54:49;;;;;;;10.20;2.70;;;;;;;;;;1029447;28;99920;-57
2021/09/29 14:55:20;;;;;;;11.23;2.72;;;;;;;;;;1031453;28;101547;-57
2021/09/29 14:55:51;;;;;;;8.32;2.30;;;;;;;;;;1036963;28;99904;-56
2021/09/29 14:56:22;;;;;;;11.70;2.92;;;;;;;;;;1031745;28;100702;-57
2021/09/29 14:56:53;;;;;;;8.43;2.50;;;;;;;;;;1028693;28;100016;-57
2021/09/29 14:57:24;;;;;;;10.38;2.83;;;;;;;;;;1023223;28;100416;-57
2021/09/29 14:57:58;;;;;;;7.70;2.20;;;;;;;;;;1020828;28;99961;-56
2021/09/29 14:58:29;;;;;;;11.88;2.25;;;;;;;;;;1015328;28;100753;-57
2021/09/29 14:59:01;;;;;;;10.40;2.47;;;;;;;;;;1014470;28;99711;-56
2021/09/29 14:59:32;;;;;;;7.68;2.58;;;;;;;;;;1019135;28;100561;-56
2021/09/29 15:00:03;;;;;;;7.10;2.25;;;;;;;;;;1021351;28;101722;-55
2021/09/29 15:00:34;;;;;;;10.38;2.50;;;;;;;;;;1019034;28;100988;-55
2021/09/29 15:01:05;;;;;;;12.05;2.55;;;;;;;;;;1020228;28;100384;-55
2021/09/29 15:01:36;;;;;;;7.40;2.22;;;;;;;;;;1010886;28;100372;-53
2021/09/29 15:02:07;;;;;;;9.88;2.50;;;;;;;;;;1012798;28;100234;-56
2021/09/29 15:02:38;;;;;;;9.82;2.28;;;;;;;;;;1010965;28;100405;-57
2021/09/29 15:03:10;;;;;;;10.88;2.45;;;;;;;;;;1012437;28;100392;-54
2021/09/29 15:03:42;;;;;;;10.57;2.40;;;;;;;;;;1019436;28;100786;-54
2021/09/29 15:04:13;;;;;;;6.75;2.47;;;;;;;;;;1021215;28;100122;-57
2021/09/29 15:04:45;;;;;;;9.57;2.70;;;;;;;;;;1019216;28;102900;-55
2021/09/29 15:05:16;;;;;;;20.60;2.72;;;;;;;;;;1020464;28;99972;-56
2021/09/29 15:05:46;;;;;;;10.63;2.92;;;;;;;;;;1019226;28;101580;-58
2021/09/29 15:06:17;;;;;;;9.10;2.40;;;;;;;;;;1020424;28;100058;-56
2021/09/29 15:06:48;;;;;;;9.63;2.80;;;;;;;;;;1023564;28;100416;-56
2021/09/29 15:07:19;;;;;;;8.52;2.38;;;;;;;;;;1024579;28;99731;-56
2021/09/29 15:07:49;;;;;;;8.70;2.55;;;;;;;;;;1027306;28;100758;-54
2021/09/29 15:08:21;;;;;;;10.30;2.42;;;;;;;;;;1028706;28;99968;-56
2021/09/29 15:08:52;;;;;;;7.43;2.55;;;;;;;;;;1027331;28;100400;-56
2021/09/29 15:09:23;;;;;;;12.77;2.85;;;;;;;;;;1028212;28;100029;-56
2021/09/29 15:09:54;;;;;;;9.30;2.70;;;;;;;;;;1023221;28;101623;-57
2021/09/29 15:10:24;;;;;;;10.02;2.30;;;;;;;;;;1024731;28;99967;-57
2021/09/29 15:10:55;;;;;;;9.27;2.83;;;;;;;;;;1019240;28;100850;-58
2021/09/29 15:11:26;;;;;;;6.95;2.15;;;;;;;;;;1020658;28;99951;-59
2021/09/29 15:11:57;;;;;;;7.00;1.95;;;;;;;;;;1019336;28;102971;-58
2021/09/29 15:12:28;;;;;;;9.20;2.38;;;;;;;;;;1020724;28;99924;-57
2021/09/29 15:13:03;;;;;;;6.32;1.95;;;;;;;;;;1023506;28;100396;-57
2021/09/29 15:13:40;;;;;;;9.55;2.40;;;;;;;;;;1020515;28;99953;-55
2021/09/29 15:50:11;;;;;;;10.18;2.25;;;;;;;;;;1063207;27;99931;-52
2021/09/29 15:53:15;;;;;;;10.63;2.78;;;;;;;;;;1058143;27;99838;-52
2021/09/29 15:57:32;;;;;;;8.60;1.88;;;;;;;;;;1057998;27;100051;-55
2021/09/29 16:00:13;;;;;;;11.60;2.10;;;;;;;;;;1030099;28;100764;-55
2021/09/29 16:01:19;;;;;;;9.68;2.00;;;;;;;;;;1031150;28;101878;-54
2021/09/29 16:01:53;;;;;;;11.05;2.20;;;;;;;;;;1036547;28;100066;-54
2021/09/29 16:05:58;;;;;;;7.43;2.55;;;;;;;;;;1035807;28;99989;-56
2021/09/29 16:09:39;;;;;;;6.50;1.90;;;;;;;;;;1033490;28;101108;-50
2021/09/29 16:13:49;;;;;;;5.95;1.88;;;;;;;;;;1018248;28;100613;-50
2021/09/29 16:15:10;;;;;;;8.60;1.75;;;;;;;;;;1022832;28;100351;-53
2021/09/29 16:22:27;;;;;;;9.65;1.90;;;;;;;;;;1007951;28;99931;-54
2021/09/29 16:30:21;;;;;;;5.88;1.50;;;;;;;;;;998224;29;100655;-52
2021/09/29 16:31:31;;;;;;;4.97;1.50;;;;;;;;;;991006;29;100462;-55
2021/09/29 16:34:01;;;;;;;8.27;1.77;;;;;;;;;;998960;29;100178;-54
2021/09/29 16:34:22;;;;;;;9.65;1.60;;;;;;;;;;987130;29;100886;-58
2021/09/29 16:35:32;;;;;;;5.97;1.85;;;;;;;;;;996682;29;100740;-50
2021/09/29 16:36:05;;;;;;;6.75;1.38;;;;;;;;;;992704;29;100305;-55
2021/09/29 16:36:36;;;;;;;6.68;2.00;;;;;;;;;;990879;29;100465;-55
2021/09/29 16:37:07;;;;;;;8.93;1.73;;;;;;;;;;992759;29;100299;-52
2021/09/29 16:37:38;;;;;;;6.82;1.58;;;;;;;;;;990718;29;101584;-57
2021/09/29 16:38:09;;;;;;;5.85;1.55;;;;;;;;;;1007916;28;100255;-58
2021/09/29 16:38:41;;;;;;;4.40;1.50;;;;;;;;;;1014297;28;100426;-58
2021/09/29 16:39:13;;;;;;;9.52;2.10;;;;;;;;;;1013120;28;100185;-53
2021/09/29 16:39:44;;;;;;;5.55;1.80;;;;;;;;;;1010232;28;101657;-54
2021/09/29 16:40:18;;;;;;;6.03;1.42;;;;;;;;;;1014506;28;100280;-54
2021/09/29 16:40:49;;;;;;;5.57;1.70;;;;;;;;;;1014254;28;100755;-55
2021/09/29 16:41:21;;;;;;;6.70;1.70;;;;;;;;;;1016052;28;99888;-56
2021/09/29 16:41:51;;;;;;;6.75;1.50;;;;;;;;;;1014736;28;100753;-61
2021/09/29 16:42:22;;;;;;;5.63;1.67;;;;;;;;;;1015901;28;99858;-61
2021/09/29 16:42:57;;;;;;;7.15;1.30;;;;;;;;;;1013342;28;100470;-59
2021/09/29 16:43:28;;;;;;;8.95;2.05;;;;;;;;;;1010891;28;100710;-60
2021/09/29 16:43:59;;;;;;;6.80;1.33;;;;;;;;;;1013149;28;101447;-60
2021/09/29 16:44:31;;;;;;;9.05;1.67;;;;;;;;;;1015937;28;99996;-60
2021/09/29 16:45:05;;;;;;;5.78;1.45;;;;;;;;;;1014474;28;100564;-60
2021/09/29 16:45:37;;;;;;;5.65;1.77;;;;;;;;;;1019428;28;99605;-61
2021/09/29 16:46:08;;;;;;;8.50;1.52;;;;;;;;;;1018656;28;100960;-61
2021/09/29 16:46:40;;;;;;;9.57;1.63;;;;;;;;;;1019895;28;100450;-60
2021/09/29 16:47:11;;;;;;;9.88;1.50;;;;;;;;;;1018140;28;100420;-61
2021/09/29 16:47:44;;;;;;;4.82;1.10;;;;;;;;;;1015744;28;99933;-60
2021/09/29 16:48:18;;;;;;;5.90;1.45;;;;;;;;;;1014505;28;101746;-60
2021/09/29 16:48:49;;;;;;;5.85;1.33;;;;;;;;;;1016203;28;100143;-62
2021/09/29 16:49:24;;;;;;;4.03;1.02;;;;;;;;;;1017487;28;100500;-60
2021/09/29 16:49:55;;;;;;;4.70;1.20;;;;;;;;;;1019662;28;100267;-60
2021/09/29 16:50:34;;;;;;;4.47;1.38;;;;;;;;;;1018648;28;100895;-59
2021/09/29 16:51:43;;;;;;;7.88;1.60;;;;;;;;;;1017904;28;100410;-59
2021/09/29 16:52:39;;;;;;;3.88;1.20;;;;;;;;;;1019780;28;99884;-59
2021/09/29 16:53:11;;;;;;;5.07;1.10;;;;;;;;;;1018575;28;100705;-60
2021/09/29 16:53:45;;;;;;;5.15;1.30;;;;;;;;;;1019594;28;99940;-59
2021/09/29 16:54:18;;;;;;;7.70;1.40;;;;;;;;;;1018273;28;100489;-63
2021/09/29 16:54:53;;;;;;;3.72;1.30;;;;;;;;;;1019828;28;100171;-60
2021/09/29 16:55:29;;;;;;;3.40;0.90;;;;;;;;;;1019620;28;101670;-61
2021/09/29 16:56:01;;;;;;;4.90;0.90;;;;;;;;;;1031255;28;100166;-59
2021/09/29 16:56:34;;;;;;;3.65;0.90;;;;;;;;;;1034712;28;100369;-61
2021/09/29 16:57:11;;;;;;;4.80;1.15;;;;;;;;;;1035983;28;100044;-62
2021/09/29 16:57:51;;;;;;;3.88;1.05;;;;;;;;;;1030522;28;100801;-61
2021/09/29 16:58:25;;;;;;;;;;;;;;;;;;1032250;28;99876;-62
2021/09/29 16:59:00;;;;;;;4.68;1.08;;;;;;;;;;1030455;28;100781;-62
2021/09/29 16:59:43;;;;;;;5.28;0.90;;;;;;;;;;1029719;28;100141;-63
2021/09/29 17:00:32;;;;;;;2.95;0.93;;;;;;;;;;1030586;28;100991;-63
2021/09/29 17:01:08;;;;;;;2.75;0.70;;;;;;;;;;1029811;28;99916;-61
2021/09/29 17:01:39;;;;;;;4.28;1.05;;;;;;;;;;1023558;28;100771;-62
2021/09/29 17:02:13;;;;;;;4.53;1.17;;;;;;;;;;1025114;28;99495;-62
2021/09/29 17:02:43;;;;;;;5.43;1.13;;;;;;;;;;1024002;28;100438;-61
2021/09/29 17:03:14;;;;;;;4.10;0.93;;;;;;;;;;1026051;28;100022;-63
2021/09/29 17:03:46;;;;;;;4.75;1.10;;;;;;;;;;1027663;28;100602;-64
2021/09/29 17:04:17;;;;;;;4.00;0.90;;;;;;;;;;1028689;28;100163;-64
2021/09/29 17:04:49;;;;;;;2.90;1.13;;;;;;;;;;1028141;28;100631;-62
2021/09/29 17:05:20;;;;;;;3.60;1.00;;;;;;;;;;1033145;28;99951;-62
2021/09/29 17:05:51;;;;;;;3.35;1.15;;;;;;;;;;1032064;28;100716;-62
2021/09/29 17:06:22;;;;;;;3.40;1.30;;;;;;;;;;1033133;28;99882;-62
2021/09/29 17:06:54;;;;;;;4.43;1.38;;;;;;;;;;1038919;27;100661;-59
2021/09/29 17:07:25;;;;;;;7.68;1.00;;;;;;;;;;1045818;27;99920;-53
2021/09/29 17:07:56;;;;;;;3.17;1.10;;;;;;;;;;1044966;27;100466;-59
2021/09/29 17:08:28;;;;;;;12.20;1.30;;;;;;;;;;1045585;27;100208;-58
2021/09/29 17:09:00;;;;;;;4.13;1.17;;;;;;;;;;1044217;27;101238;-60
2021/09/29 17:09:32;;;;;;;5.55;1.33;;;;;;;;;;1045523;27;100001;-60
2021/09/29 17:10:04;;;;;;;6.78;1.10;;;;;;;;;;1040474;27;103162;-58
2021/09/29 17:10:34;;;;;;;10.60;1.27;;;;;;;;;;1045812;27;100001;-56
2021/09/29 17:11:09;;;;;;;8.93;1.05;;;;;;;;;;1044522;27;100454;-59
2021/09/29 17:11:40;;;;;;;11.40;1.35;;;;;;;;;;1046636;27;100034;-61
2021/09/29 17:12:12;;;;;;;6.85;1.23;;;;;;;;;;1049057;27;100380;-52
2021/09/29 17:12:43;;;;;;;3.25;1.02;;;;;;;;;;1045846;27;99888;-56
2021/09/29 17:13:16;;;;;;;3.30;0.80;;;;;;;;;;1044637;27;100478;-56
2021/09/29 17:13:48;;;;;;;4.15;1.25;;;;;;;;;;1045987;27;100000;-57
2021/09/29 17:14:18;;;;;;;8.98;1.30;;;;;;;;;;1042554;27;103335;-56
2021/09/29 17:14:49;;;;;;;5.18;1.33;;;;;;;;;;1045589;27;100077;-58
2021/09/29 17:15:20;;;;;;;3.00;0.90;;;;;;;;;;1044502;27;100508;-58
2021/09/29 17:15:56;;;;;;;6.00;1.05;;;;;;;;;;1046077;27;99879;-58
2021/09/29 17:16:28;;;;;;;6.18;1.02;;;;;;;;;;1049863;27;100477;-58
2021/09/29 17:16:59;;;;;;;4.50;1.30;;;;;;;;;;1054727;27;99904;-56
2021/09/29 17:17:29;;;;;;;3.67;1.10;;;;;;;;;;1035395;28;102723;-58
2021/09/29 17:18:00;;;;;;;2.83;1.08;;;;;;;;;;1037160;28;99922;-58
2021/09/29 17:18:31;;;;;;;5.13;1.33;;;;;;;;;;1031137;28;101379;-58
2021/09/29 17:19:06;;;;;;;5.10;1.38;;;;;;;;;;1033393;28;100016;-58
2021/09/29 17:19:37;;;;;;;5.38;1.10;;;;;;;;;;1035808;28;100657;-59
2021/09/29 17:20:09;;;;;;;5.72;1.35;;;;;;;;;;1037609;28;100337;-58
2021/09/29 17:20:39;;;;;;;3.53;1.30;;;;;;;;;;1039918;28;101952;-58
2021/09/29 17:21:15;;;;;;;4.22;1.20;;;;;;;;;;1037349;28;99940;-58
2021/09/29 17:21:46;;;;;;;3.08;1.00;;;;;;;;;;1035960;28;100741;-59
2021/09/29 17:22:17;;;;;;;3.92;1.27;;;;;;;;;;1037258;28;100059;-58
2021/09/29 17:22:48;;;;;;;3.28;1.00;;;;;;;;;;1036893;28;100295;-59
2021/09/29 17:23:20;;;;;;;2.97;0.88;;;;;;;;;;1040236;28;99873;-59
2021/09/29 17:23:55;;;;;;;4.47;1.17;;;;;;;;;;1036987;28;102779;-59
2021/09/29 17:24:31;;;;;;;3.58;0.88;;;;;;;;;;1035634;28;101334;-59
2021/09/29 17:25:02;;;;;;;3.85;1.10;;;;;;;;;;1034549;28;101013;-58
2021/09/29 17:25:34;;;;;;;3.00;0.95;;;;;;;;;;1036108;28;100209;-58
2021/09/29 17:26:06;;;;;;;4.60;1.20;;;;;;;;;;1035638;28;100430;-57
2021/09/29 17:26:37;;;;;;;3.35;1.00;;;;;;;;;;1031465;28;100332;-59
2021/09/29 17:27:11;;;;;;;5.05;1.02;;;;;;;;;;1029696;28;100404;-58
2021/09/29 17:27:42;;;;;;;2.08;0.95;;;;;;;;;;1025284;28;100399;-59
2021/09/29 17:28:17;;;;;;;3.30;1.17;;;;;;;;;;1025266;28;100529;-59